sensor_id;sensor_type;location;lat;lon;timestamp;pressure;altitude;pressure_sealevel;temperature;humidity
67545;BME280;54380;47.770;11.150;2023-02-20T06:52:38;95888.88;;;5.62;60.09
67545;BME280;54380;47.770;11.150;2023-02-20T06:55:05;95885.25;;;5.63;60.00
67545;BME280;54380;47.770;11.150;2023-02-20T06:57:32;95890.50;;;5.63;59.77
67545;BME280;54380;47.770;11.150;2023-02-20T06:59:59;95888.88;;;5.62;59.35
67545;BME280;54380;47.770;11.150;2023-02-20T07:02:25;95889.88;;;5.61;59.87
67545;BME280;54380;47.770;11.150;2023-02-20T07:04:52;95885.66;;;5.60;60.20
67545;BME280;54380;47.770;11.150;2023-02-20T07:07:19;95880.81;;;5.63;60.57
67545;BME280;54380;47.770;11.150;2023-02-20T07:09:47;95874.81;;;5.69;60.99
67545;BME280;54380;47.770;11.150;2023-02-20T07:12:14;95876.25;;;5.79;60.77
67545;BME280;54380;47.770;11.150;2023-02-20T07:14:41;95877.09;;;5.86;60.21
67545;BME280;54380;47.770;11.150;2023-02-20T07:17:07;95881.53;;;5.92;61.10
67545;BME280;54380;47.770;11.150;2023-02-20T07:19:34;95878.19;;;5.98;60.32
67545;BME280;54380;47.770;11.150;2023-02-20T07:22:01;95872.75;;;6.06;60.66
67545;BME280;54380;47.770;11.150;2023-02-20T07:24:28;95876.41;;;6.19;60.45
67545;BME280;54380;47.770;11.150;2023-02-20T07:26:56;95874.66;;;6.32;60.58
67545;BME280;54380;47.770;11.150;2023-02-20T07:29:23;95865.38;;;6.50;60.58
67545;BME280;54380;47.770;11.150;2023-02-20T07:31:49;95868.41;;;6.73;60.42
67545;BME280;54380;47.770;11.150;2023-02-20T07:34:17;95871.88;;;7.00;60.22
67545;BME280;54380;47.770;11.150;2023-02-20T07:36:44;95872.63;;;7.28;60.10
67545;BME280;54380;47.770;11.150;2023-02-20T07:39:12;95872.56;;;7.54;59.85
67545;BME280;54380;47.770;11.150;2023-02-20T07:41:39;95873.31;;;7.75;59.37
67545;BME280;54380;47.770;11.150;2023-02-20T07:44:22;95869.78;;;8.01;58.82
67545;BME280;54380;47.770;11.150;2023-02-20T07:46:49;95871.88;;;8.24;59.06
67545;BME280;54380;47.770;11.150;2023-02-20T07:49:16;95868.53;;;8.48;59.19
67545;BME280;54380;47.770;11.150;2023-02-20T07:51:44;95868.94;;;8.77;57.66
67545;BME280;54380;47.770;11.150;2023-02-20T07:54:11;95871.56;;;9.02;57.23
67545;BME280;54380;47.770;11.150;2023-02-20T07:56:39;95881.25;;;9.27;56.96
67545;BME280;54380;47.770;11.150;2023-02-20T07:59:06;95880.00;;;9.54;57.18
67545;BME280;54380;47.770;11.150;2023-02-20T08:01:34;95879.69;;;9.81;55.96
67545;BME280;54380;47.770;11.150;2023-02-20T08:04:01;95876.41;;;10.04;54.93
67545;BME280;54380;47.770;11.150;2023-02-20T08:06:28;95880.47;;;10.18;53.43
67545;BME280;54380;47.770;11.150;2023-02-20T08:08:55;95883.53;;;10.33;53.47
67545;BME280;54380;47.770;11.150;2023-02-20T08:11:22;95876.47;;;10.46;52.18
67545;BME280;54380;47.770;11.150;2023-02-20T08:13:49;95878.94;;;10.59;52.50
67545;BME280;54380;47.770;11.150;2023-02-20T08:16:16;95877.94;;;10.72;51.77
67545;BME280;54380;47.770;11.150;2023-02-20T08:18:44;95882.44;;;10.83;51.66
67545;BME280;54380;47.770;11.150;2023-02-20T08:21:11;95871.31;;;10.93;51.43
67545;BME280;54380;47.770;11.150;2023-02-20T08:23:38;95865.44;;;11.03;51.18
67545;BME280;54380;47.770;11.150;2023-02-20T08:26:05;95857.75;;;11.13;51.04
67545;BME280;54380;47.770;11.150;2023-02-20T08:28:31;95858.00;;;11.23;50.17
67545;BME280;54380;47.770;11.150;2023-02-20T08:30:58;95849.59;;;11.26;49.20
67545;BME280;54380;47.770;11.150;2023-02-20T08:33:25;95844.53;;;11.36;49.92
67545;BME280;54380;47.770;11.150;2023-02-20T08:35:53;95837.75;;;11.52;50.38
67545;BME280;54380;47.770;11.150;2023-02-20T08:38:23;95831.72;;;11.69;49.40
67545;BME280;54380;47.770;11.150;2023-02-20T08:40:50;95822.41;;;11.78;49.33
67545;BME280;54380;47.770;11.150;2023-02-20T08:43:18;95811.00;;;11.89;49.00
67545;BME280;54380;47.770;11.150;2023-02-20T08:45:45;95802.47;;;11.99;48.53
67545;BME280;54380;47.770;11.150;2023-02-20T08:48:12;95789.09;;;12.05;49.08
67545;BME280;54380;47.770;11.150;2023-02-20T08:50:38;95791.78;;;12.22;48.83
67545;BME280;54380;47.770;11.150;2023-02-20T08:53:06;95797.91;;;12.40;48.56
67545;BME280;54380;47.770;11.150;2023-02-20T08:55:33;95809.88;;;12.59;48.90
67545;BME280;54380;47.770;11.150;2023-02-20T08:58:00;95802.25;;;12.63;47.73
67545;BME280;54380;47.770;11.150;2023-02-20T09:00:27;95797.28;;;12.49;47.61
67545;BME280;54380;47.770;11.150;2023-02-20T09:02:53;95791.97;;;12.33;48.16
67545;BME280;54380;47.770;11.150;2023-02-20T09:05:20;95797.16;;;12.27;48.06
67545;BME280;54380;47.770;11.150;2023-02-20T09:07:47;95794.13;;;12.36;49.08
67545;BME280;54380;47.770;11.150;2023-02-20T09:10:16;95794.00;;;12.59;48.44
67545;BME280;54380;47.770;11.150;2023-02-20T09:12:42;95793.28;;;12.81;47.77
67545;BME280;54380;47.770;11.150;2023-02-20T09:15:09;95788.38;;;13.06;47.87
67545;BME280;54380;47.770;11.150;2023-02-20T09:17:37;95784.63;;;13.41;47.36
67545;BME280;54380;47.770;11.150;2023-02-20T09:20:04;95778.38;;;13.74;47.09
67545;BME280;54380;47.770;11.150;2023-02-20T09:22:35;95779.41;;;13.95;45.95
67545;BME280;54380;47.770;11.150;2023-02-20T09:25:03;95785.41;;;13.86;45.41
67545;BME280;54380;47.770;11.150;2023-02-20T09:27:32;95773.03;;;13.69;44.84
67545;BME280;54380;47.770;11.150;2023-02-20T09:29:58;95771.28;;;13.58;44.94
67545;BME280;54380;47.770;11.150;2023-02-20T09:32:25;95766.41;;;13.50;45.52
67545;BME280;54380;47.770;11.150;2023-02-20T09:34:52;95767.16;;;13.45;45.17
67545;BME280;54380;47.770;11.150;2023-02-20T09:37:19;95759.38;;;13.38;45.14
67545;BME280;54380;47.770;11.150;2023-02-20T09:39:45;95765.91;;;13.53;44.45
67545;BME280;54380;47.770;11.150;2023-02-20T09:42:22;95768.81;;;13.73;44.76
67545;BME280;54380;47.770;11.150;2023-02-20T09:45:01;95748.31;;;13.91;43.61
67545;BME280;54380;47.770;11.150;2023-02-20T09:47:37;95748.66;;;13.99;43.40
67545;BME280;54380;47.770;11.150;2023-02-20T09:50:12;95739.41;;;14.02;42.93
67545;BME280;54380;47.770;11.150;2023-02-20T09:52:44;95731.25;;;14.09;43.08
67545;BME280;54380;47.770;11.150;2023-02-20T09:55:20;95721.59;;;14.30;43.55
67545;BME280;54380;47.770;11.150;2023-02-20T09:57:51;95716.41;;;14.45;42.62
67545;BME280;54380;47.770;11.150;2023-02-20T10:00:26;95717.25;;;14.50;42.36
67545;BME280;54380;47.770;11.150;2023-02-20T10:02:58;95714.19;;;14.64;42.53
67545;BME280;54380;47.770;11.150;2023-02-20T10:05:31;95713.53;;;14.84;43.27
67545;BME280;54380;47.770;11.150;2023-02-20T10:07:58;95707.31;;;15.10;43.63
67545;BME280;54380;47.770;11.150;2023-02-20T10:10:27;95713.81;;;15.40;42.96
67545;BME280;54380;47.770;11.150;2023-02-20T10:13:02;95711.25;;;15.66;42.69
67545;BME280;54380;47.770;11.150;2023-02-20T10:15:37;95709.75;;;15.85;41.71
67545;BME280;54380;47.770;11.150;2023-02-20T10:18:17;95713.25;;;16.01;41.92
67545;BME280;54380;47.770;11.150;2023-02-20T10:20:55;95722.84;;;16.22;41.20
67545;BME280;54380;47.770;11.150;2023-02-20T10:23:32;95718.59;;;16.27;41.26
67545;BME280;54380;47.770;11.150;2023-02-20T10:26:05;95719.38;;;16.32;41.49
67545;BME280;54380;47.770;11.150;2023-02-20T10:28:35;95703.94;;;16.44;39.97
67545;BME280;54380;47.770;11.150;2023-02-20T12:06:40;95530.41;;;19.77;34.97
67545;BME280;54380;47.770;11.150;2023-02-20T12:09:10;95535.34;;;19.89;34.75
67545;BME280;54380;47.770;11.150;2023-02-20T12:11:38;95524.19;;;19.82;34.57
67545;BME280;54380;47.770;11.150;2023-02-20T12:14:10;95511.75;;;19.72;34.16
67545;BME280;54380;47.770;11.150;2023-02-20T12:16:53;95509.22;;;19.62;34.20
67545;BME280;54380;47.770;11.150;2023-02-20T12:19:27;95506.75;;;19.65;34.32
67545;BME280;54380;47.770;11.150;2023-02-20T12:22:09;95494.97;;;19.66;33.72
67545;BME280;54380;47.770;11.150;2023-02-20T12:24:58;95496.28;;;19.69;33.33
67545;BME280;54380;47.770;11.150;2023-02-20T12:27:37;95490.13;;;19.68;33.86
67545;BME280;54380;47.770;11.150;2023-02-20T12:30:19;95485.22;;;19.57;33.58
67545;BME280;54380;47.770;11.150;2023-02-20T12:33:00;95488.28;;;19.64;33.29
67545;BME280;54380;47.770;11.150;2023-02-20T12:35:31;95484.53;;;19.65;33.88
67545;BME280;54380;47.770;11.150;2023-02-20T12:38:21;95479.25;;;19.60;33.75
67545;BME280;54380;47.770;11.150;2023-02-20T12:41:09;95477.97;;;19.57;33.66
67545;BME280;54380;47.770;11.150;2023-02-20T12:43:45;95469.72;;;19.53;34.43
67545;BME280;54380;47.770;11.150;2023-02-20T12:46:16;95466.94;;;19.59;34.03
67545;BME280;54380;47.770;11.150;2023-02-20T12:48:56;95461.66;;;19.53;34.10
67545;BME280;54380;47.770;11.150;2023-02-20T12:51:36;95458.88;;;19.45;33.61
67545;BME280;54380;47.770;11.150;2023-02-20T12:54:21;95455.16;;;19.60;34.01
67545;BME280;54380;47.770;11.150;2023-02-20T12:57:00;95455.31;;;19.68;32.76
67545;BME280;54380;47.770;11.150;2023-02-20T12:59:31;95452.13;;;19.66;33.58
67545;BME280;54380;47.770;11.150;2023-02-20T13:02:12;95451.38;;;19.61;34.07
67545;BME280;54380;47.770;11.150;2023-02-20T13:04:43;95450.25;;;19.48;34.59
67545;BME280;54380;47.770;11.150;2023-02-20T13:07:16;95447.53;;;19.34;34.61
67545;BME280;54380;47.770;11.150;2023-02-20T13:09:54;95439.81;;;19.33;34.09
67545;BME280;54380;47.770;11.150;2023-02-20T13:12:24;95438.91;;;19.37;34.51
67545;BME280;54380;47.770;11.150;2023-02-20T13:14:58;95435.25;;;19.33;33.66
67545;BME280;54380;47.770;11.150;2023-02-20T13:17:34;95434.09;;;19.20;34.50
67545;BME280;54380;47.770;11.150;2023-02-20T13:20:12;95431.50;;;19.15;35.04
67545;BME280;54380;47.770;11.150;2023-02-20T13:22:40;95435.91;;;19.06;35.21
67545;BME280;54380;47.770;11.150;2023-02-20T13:25:38;95436.88;;;18.96;35.12
67545;BME280;54380;47.770;11.150;2023-02-20T13:28:24;95435.06;;;18.92;35.46
67545;BME280;54380;47.770;11.150;2023-02-20T13:31:10;95431.88;;;18.90;34.68
67545;BME280;54380;47.770;11.150;2023-02-20T13:33:38;95425.94;;;18.93;35.40
67545;BME280;54380;47.770;11.150;2023-02-20T13:36:15;95424.34;;;18.92;35.99
67545;BME280;54380;47.770;11.150;2023-02-20T13:42:00;95432.94;;;18.70;35.98
67545;BME280;54380;47.770;11.150;2023-02-20T13:44:42;95423.38;;;18.63;35.92
67545;BME280;54380;47.770;11.150;2023-02-20T13:47:29;95424.53;;;18.57;36.37
67545;BME280;54380;47.770;11.150;2023-02-20T13:49:58;95425.94;;;18.50;35.65
67545;BME280;54380;47.770;11.150;2023-02-20T13:52:37;95425.00;;;18.40;35.82
67545;BME280;54380;47.770;11.150;2023-02-20T13:55:13;95418.97;;;18.30;37.07
67545;BME280;54380;47.770;11.150;2023-02-20T13:57:45;95425.06;;;18.11;37.39
67545;BME280;54380;47.770;11.150;2023-02-20T14:00:24;95418.28;;;17.95;37.71
67545;BME280;54380;47.770;11.150;2023-02-20T14:02:51;95420.59;;;17.77;37.17
67545;BME280;54380;47.770;11.150;2023-02-20T14:05:21;95421.22;;;17.69;36.25
67545;BME280;54380;47.770;11.150;2023-02-20T14:07:49;95414.84;;;17.65;37.24
67545;BME280;54380;47.770;11.150;2023-02-20T14:10:22;95420.97;;;17.66;37.65
67545;BME280;54380;47.770;11.150;2023-02-20T14:12:58;95418.03;;;17.67;37.75
67545;BME280;54380;47.770;11.150;2023-02-20T14:15:27;95416.47;;;17.61;37.19
67545;BME280;54380;47.770;11.150;2023-02-20T14:17:56;95413.38;;;17.49;37.82
67545;BME280;54380;47.770;11.150;2023-02-20T14:20:30;95399.81;;;17.40;37.78
67545;BME280;54380;47.770;11.150;2023-02-20T14:23:20;95394.78;;;17.39;37.73
67545;BME280;54380;47.770;11.150;2023-02-20T14:25:52;95397.97;;;17.41;37.36
67545;BME280;54380;47.770;11.150;2023-02-20T14:28:28;95388.38;;;17.40;37.63
67545;BME280;54380;47.770;11.150;2023-02-20T14:31:18;95385.69;;;17.40;36.71
67545;BME280;54380;47.770;11.150;2023-02-20T14:33:47;95387.31;;;17.41;36.97
67545;BME280;54380;47.770;11.150;2023-02-20T14:36:43;95380.09;;;17.41;36.20
67545;BME280;54380;47.770;11.150;2023-02-20T14:39:28;95369.66;;;17.45;36.80
67545;BME280;54380;47.770;11.150;2023-02-20T14:42:01;95378.22;;;17.42;36.64
67545;BME280;54380;47.770;11.150;2023-02-20T14:44:31;95371.78;;;17.43;37.21
67545;BME280;54380;47.770;11.150;2023-02-20T14:47:03;95371.00;;;17.42;38.45
67545;BME280;54380;47.770;11.150;2023-02-20T14:49:33;95365.44;;;17.39;38.85
67545;BME280;54380;47.770;11.150;2023-02-20T14:52:09;95369.72;;;17.34;39.21
67545;BME280;54380;47.770;11.150;2023-02-20T14:54:38;95360.75;;;17.25;38.81
67545;BME280;54380;47.770;11.150;2023-02-20T14:57:07;95356.78;;;17.23;37.67
67545;BME280;54380;47.770;11.150;2023-02-20T14:59:40;95356.47;;;17.24;38.72
67545;BME280;54380;47.770;11.150;2023-02-20T15:02:16;95354.09;;;17.23;38.13
67545;BME280;54380;47.770;11.150;2023-02-20T15:05:01;95351.19;;;17.19;38.44
67545;BME280;54380;47.770;11.150;2023-02-20T15:07:28;95347.22;;;17.17;37.99
67545;BME280;54380;47.770;11.150;2023-02-20T15:09:58;95348.53;;;17.19;37.81
67545;BME280;54380;47.770;11.150;2023-02-20T15:12:28;95346.16;;;17.18;37.44
67545;BME280;54380;47.770;11.150;2023-02-20T15:15:01;95349.59;;;17.18;37.65
67545;BME280;54380;47.770;11.150;2023-02-20T15:17:30;95350.97;;;17.16;36.85
67545;BME280;54380;47.770;11.150;2023-02-20T15:19:57;95350.97;;;17.16;36.97
67545;BME280;54380;47.770;11.150;2023-02-20T15:22:29;95346.41;;;17.16;37.99
67545;BME280;54380;47.770;11.150;2023-02-20T15:25:12;95344.88;;;17.10;37.71
67545;BME280;54380;47.770;11.150;2023-02-20T15:27:45;95341.97;;;17.06;36.70
67545;BME280;54380;47.770;11.150;2023-02-20T15:30:29;95344.69;;;17.01;36.74
67545;BME280;54380;47.770;11.150;2023-02-20T15:32:57;95347.66;;;16.95;37.43
67545;BME280;54380;47.770;11.150;2023-02-20T15:35:26;95339.69;;;16.89;37.84
67545;BME280;54380;47.770;11.150;2023-02-20T15:37:55;95340.25;;;16.86;37.93
67545;BME280;54380;47.770;11.150;2023-02-20T15:40:24;95341.09;;;16.82;38.13
67545;BME280;54380;47.770;11.150;2023-02-20T15:42:52;95339.56;;;16.71;37.57
67545;BME280;54380;47.770;11.150;2023-02-20T15:45:24;95330.78;;;16.65;37.52
67545;BME280;54380;47.770;11.150;2023-02-20T15:47:52;95332.41;;;16.61;37.19
67545;BME280;54380;47.770;11.150;2023-02-20T15:50:19;95328.44;;;16.58;37.49
67545;BME280;54380;47.770;11.150;2023-02-20T15:52:47;95331.41;;;16.52;37.58
67545;BME280;54380;47.770;11.150;2023-02-20T15:55:15;95331.44;;;16.46;37.68
67545;BME280;54380;47.770;11.150;2023-02-20T15:57:44;95321.34;;;16.43;37.71
67545;BME280;54380;47.770;11.150;2023-02-20T16:00:18;95320.28;;;16.39;37.11
67545;BME280;54380;47.770;11.150;2023-02-20T16:02:49;95323.78;;;16.35;36.76
67545;BME280;54380;47.770;11.150;2023-02-20T16:05:18;95319.28;;;16.30;37.40
67545;BME280;54380;47.770;11.150;2023-02-20T16:07:45;95317.97;;;16.28;36.93
67545;BME280;54380;47.770;11.150;2023-02-20T16:10:14;95313.22;;;16.24;36.11
67545;BME280;54380;47.770;11.150;2023-02-20T16:12:42;95311.88;;;16.22;36.51
67545;BME280;54380;47.770;11.150;2023-02-20T16:15:10;95309.75;;;16.19;36.12
67545;BME280;54380;47.770;11.150;2023-02-20T16:17:40;95305.78;;;16.11;36.00
67545;BME280;54380;47.770;11.150;2023-02-20T16:20:13;95312.50;;;16.04;36.04
67545;BME280;54380;47.770;11.150;2023-02-20T16:22:41;95314.69;;;15.91;36.30
67545;BME280;54380;47.770;11.150;2023-02-20T16:25:10;95307.28;;;15.83;36.16
67545;BME280;54380;47.770;11.150;2023-02-20T16:27:37;95317.94;;;15.73;36.20
67545;BME280;54380;47.770;11.150;2023-02-20T16:30:06;95320.09;;;15.61;36.59
67545;BME280;54380;47.770;11.150;2023-02-20T16:32:33;95323.31;;;15.52;36.90
67545;BME280;54380;47.770;11.150;2023-02-20T16:35:00;95330.75;;;15.45;37.08
67545;BME280;54380;47.770;11.150;2023-02-20T16:37:27;95327.84;;;15.36;36.84
67545;BME280;54380;47.770;11.150;2023-02-20T16:39:56;95332.41;;;15.26;37.20
67545;BME280;54380;47.770;11.150;2023-02-20T16:42:26;95324.44;;;15.15;37.06
67545;BME280;54380;47.770;11.150;2023-02-20T16:44:55;95319.41;;;15.04;36.85
67545;BME280;54380;47.770;11.150;2023-02-20T16:47:26;95323.94;;;14.93;37.01
67545;BME280;54380;47.770;11.150;2023-02-20T16:49:53;95321.81;;;14.80;36.99
67545;BME280;54380;47.770;11.150;2023-02-20T16:52:24;95329.75;;;14.64;37.05
67545;BME280;54380;47.770;11.150;2023-02-20T16:54:52;95327.59;;;14.46;37.11
67545;BME280;54380;47.770;11.150;2023-02-20T16:57:22;95323.81;;;14.26;37.45
67545;BME280;54380;47.770;11.150;2023-02-20T16:59:50;95329.88;;;14.07;37.43
67545;BME280;54380;47.770;11.150;2023-02-20T17:02:23;95338.56;;;13.92;38.31
67545;BME280;54380;47.770;11.150;2023-02-20T17:04:50;95334.84;;;13.82;38.92
67545;BME280;54380;47.770;11.150;2023-02-20T17:07:17;95344.59;;;13.77;38.88
67545;BME280;54380;47.770;11.150;2023-02-20T17:09:44;95331.03;;;13.63;38.32
67545;BME280;54380;47.770;11.150;2023-02-20T17:12:14;95327.72;;;13.41;38.51
67545;BME280;54380;47.770;11.150;2023-02-20T17:14:43;95329.41;;;13.14;38.48
67545;BME280;54380;47.770;11.150;2023-02-20T17:17:09;95331.94;;;12.99;39.01
67545;BME280;54380;47.770;11.150;2023-02-20T17:19:37;95335.28;;;12.89;39.51
67545;BME280;54380;47.770;11.150;2023-02-20T17:22:05;95334.72;;;12.82;39.18
67545;BME280;54380;47.770;11.150;2023-02-20T17:24:32;95343.06;;;12.69;39.42
67545;BME280;54380;47.770;11.150;2023-02-20T17:27:01;95347.69;;;12.51;39.19
67545;BME280;54380;47.770;11.150;2023-02-20T17:29:28;95356.03;;;12.38;39.63
67545;BME280;54380;47.770;11.150;2023-02-20T17:31:57;95353.78;;;12.25;39.74
67545;BME280;54380;47.770;11.150;2023-02-20T17:34:23;95358.34;;;12.07;40.12
67545;BME280;54380;47.770;11.150;2023-02-20T17:36:50;95359.78;;;11.93;40.27
67545;BME280;54380;47.770;11.150;2023-02-20T17:39:19;95370.19;;;11.83;40.72
67545;BME280;54380;47.770;11.150;2023-02-20T17:41:47;95361.91;;;11.74;40.34
67545;BME280;54380;47.770;11.150;2023-02-20T17:44:15;95363.38;;;11.65;40.76
67545;BME280;54380;47.770;11.150;2023-02-20T17:46:42;95367.16;;;11.52;41.16
67545;BME280;54380;47.770;11.150;2023-02-20T17:49:11;95364.78;;;11.34;41.25
67545;BME280;54380;47.770;11.150;2023-02-20T17:51:39;95371.69;;;11.18;41.59
67545;BME280;54380;47.770;11.150;2023-02-20T17:54:05;95365.44;;;11.07;41.49
67545;BME280;54380;47.770;11.150;2023-02-20T17:56:32;95375.28;;;10.95;41.78
67545;BME280;54380;47.770;11.150;2023-02-20T17:58:59;95375.78;;;10.75;41.95
67545;BME280;54380;47.770;11.150;2023-02-20T18:01:26;95375.72;;;10.58;43.08
67545;BME280;54380;47.770;11.150;2023-02-20T18:03:53;95375.59;;;10.48;43.44
67545;BME280;54380;47.770;11.150;2023-02-20T18:06:22;95378.03;;;10.38;43.61
67545;BME280;54380;47.770;11.150;2023-02-20T18:08:50;95380.34;;;10.22;43.88
67545;BME280;54380;47.770;11.150;2023-02-20T18:11:17;95386.47;;;10.11;44.02
67545;BME280;54380;47.770;11.150;2023-02-20T18:13:44;95395.22;;;10.00;44.55
67545;BME280;54380;47.770;11.150;2023-02-20T18:16:12;95388.72;;;9.91;45.00
67545;BME280;54380;47.770;11.150;2023-02-20T18:18:40;95390.56;;;9.78;44.45
67545;BME280;54380;47.770;11.150;2023-02-20T18:21:15;95387.13;;;9.66;44.99
67545;BME280;54380;47.770;11.150;2023-02-20T18:23:44;95385.00;;;9.51;45.33
67545;BME280;54380;47.770;11.150;2023-02-20T18:26:11;95389.56;;;9.44;45.64
67545;BME280;54380;47.770;11.150;2023-02-20T18:28:38;95383.38;;;9.38;45.80
67545;BME280;54380;47.770;11.150;2023-02-20T18:31:06;95379.59;;;9.34;45.61
67545;BME280;54380;47.770;11.150;2023-02-20T18:33:33;95390.28;;;9.28;46.21
67545;BME280;54380;47.770;11.150;2023-02-20T18:36:00;95386.72;;;9.22;46.32
67545;BME280;54380;47.770;11.150;2023-02-20T18:38:34;95394.25;;;9.18;46.67
67545;BME280;54380;47.770;11.150;2023-02-20T18:41:03;95388.44;;;9.16;46.66
67545;BME280;54380;47.770;11.150;2023-02-20T18:43:30;95385.44;;;9.13;46.84
67545;BME280;54380;47.770;11.150;2023-02-20T18:45:57;95387.63;;;9.04;46.84
67545;BME280;54380;47.770;11.150;2023-02-20T18:48:24;95388.28;;;8.99;47.04
67545;BME280;54380;47.770;11.150;2023-02-20T18:50:51;95393.69;;;8.93;46.69
67545;BME280;54380;47.770;11.150;2023-02-20T18:53:17;95388.38;;;8.81;46.91
67545;BME280;54380;47.770;11.150;2023-02-20T18:55:45;95375.66;;;8.66;47.32
67545;BME280;54380;47.770;11.150;2023-02-20T18:58:13;95379.84;;;8.55;47.48
67545;BME280;54380;47.770;11.150;2023-02-20T19:00:42;95380.41;;;8.46;47.46
67545;BME280;54380;47.770;11.150;2023-02-20T19:03:08;95378.06;;;8.38;47.99
67545;BME280;54380;47.770;11.150;2023-02-20T19:05:35;95377.69;;;8.34;48.46
67545;BME280;54380;47.770;11.150;2023-02-20T19:08:03;95371.19;;;8.36;48.70
67545;BME280;54380;47.770;11.150;2023-02-20T19:10:30;95369.75;;;8.41;49.24
67545;BME280;54380;47.770;11.150;2023-02-20T19:12:57;95371.78;;;8.39;48.39
67545;BME280;54380;47.770;11.150;2023-02-20T19:15:26;95374.72;;;8.30;48.49
67545;BME280;54380;47.770;11.150;2023-02-20T19:17:54;95385.69;;;8.27;50.49
67545;BME280;54380;47.770;11.150;2023-02-20T19:20:23;95380.78;;;8.31;49.03
67545;BME280;54380;47.770;11.150;2023-02-20T19:22:55;95380.44;;;8.27;48.62
67545;BME280;54380;47.770;11.150;2023-02-20T19:25:22;95377.75;;;8.16;48.82
67545;BME280;54380;47.770;11.150;2023-02-20T19:27:49;95391.50;;;7.99;48.66
67545;BME280;54380;47.770;11.150;2023-02-20T19:30:16;95385.38;;;7.87;48.96
67545;BME280;54380;47.770;11.150;2023-02-20T19:32:46;95382.84;;;7.80;49.19
67545;BME280;54380;47.770;11.150;2023-02-20T19:35:13;95380.97;;;7.69;49.18
67545;BME280;54380;47.770;11.150;2023-02-20T19:37:41;95387.16;;;7.56;49.49
67545;BME280;54380;47.770;11.150;2023-02-20T19:40:08;95385.16;;;7.52;49.90
67545;BME280;54380;47.770;11.150;2023-02-20T19:42:35;95387.84;;;7.45;49.70
67545;BME280;54380;47.770;11.150;2023-02-20T19:45:04;95386.53;;;7.36;50.12
67545;BME280;54380;47.770;11.150;2023-02-20T19:47:33;95380.34;;;7.30;50.08
67545;BME280;54380;47.770;11.150;2023-02-20T19:50:02;95384.06;;;7.22;50.27
67545;BME280;54380;47.770;11.150;2023-02-20T19:52:28;95388.78;;;7.14;51.02
67545;BME280;54380;47.770;11.150;2023-02-20T19:54:55;95383.22;;;7.03;50.97
67545;BME280;54380;47.770;11.150;2023-02-20T19:57:22;95385.84;;;7.03;51.42
67545;BME280;54380;47.770;11.150;2023-02-20T19:59:50;95379.94;;;7.08;52.34
67545;BME280;54380;47.770;11.150;2023-02-20T20:02:18;95376.22;;;7.16;51.96
67545;BME280;54380;47.770;11.150;2023-02-20T20:04:50;95370.78;;;7.17;51.37
67545;BME280;54380;47.770;11.150;2023-02-20T20:07:18;95379.88;;;7.15;50.91
67545;BME280;54380;47.770;11.150;2023-02-20T20:09:45;95378.50;;;7.12;51.01
67545;BME280;54380;47.770;11.150;2023-02-20T20:12:12;95377.31;;;7.08;51.51
67545;BME280;54380;47.770;11.150;2023-02-20T20:14:57;95374.47;;;7.10;51.26
67545;BME280;54380;47.770;11.150;2023-02-20T20:17:24;95372.28;;;7.07;51.30
67545;BME280;54380;47.770;11.150;2023-02-20T20:19:53;95372.91;;;7.02;51.18
67545;BME280;54380;47.770;11.150;2023-02-20T20:22:28;95370.78;;;6.92;50.96
67545;BME280;54380;47.770;11.150;2023-02-20T20:24:56;95373.03;;;6.89;51.42
67545;BME280;54380;47.770;11.150;2023-02-20T20:27:23;95369.63;;;6.88;51.69
67545;BME280;54380;47.770;11.150;2023-02-20T20:29:50;95362.53;;;6.89;51.64
67545;BME280;54380;47.770;11.150;2023-02-20T20:32:19;95364.28;;;6.95;52.29
67545;BME280;54380;47.770;11.150;2023-02-20T20:34:46;95366.06;;;7.01;52.14
67545;BME280;54380;47.770;11.150;2023-02-20T20:37:18;95373.56;;;6.97;51.80
67545;BME280;54380;47.770;11.150;2023-02-20T20:39:47;95373.00;;;6.95;51.79
67545;BME280;54380;47.770;11.150;2023-02-20T20:42:16;95371.44;;;6.88;51.43
67545;BME280;54380;47.770;11.150;2023-02-20T20:44:43;95366.31;;;6.74;51.48
67545;BME280;54380;47.770;11.150;2023-02-20T20:47:09;95371.22;;;6.64;51.65
67545;BME280;54380;47.770;11.150;2023-02-20T20:49:36;95378.16;;;6.52;51.67
67545;BME280;54380;47.770;11.150;2023-02-20T20:52:04;95378.03;;;6.40;51.93
67545;BME280;54380;47.770;11.150;2023-02-20T20:54:31;95380.06;;;6.38;53.70
67545;BME280;54380;47.770;11.150;2023-02-20T20:57:00;95375.00;;;6.43;53.48
67545;BME280;54380;47.770;11.150;2023-02-20T20:59:27;95375.16;;;6.48;53.29
67545;BME280;54380;47.770;11.150;2023-02-20T21:01:53;95371.09;;;6.52;53.05
67545;BME280;54380;47.770;11.150;2023-02-20T21:04:21;95367.22;;;6.55;52.86
67545;BME280;54380;47.770;11.150;2023-02-20T21:06:48;95358.19;;;6.51;52.89
67545;BME280;54380;47.770;11.150;2023-02-20T21:09:15;95364.63;;;6.55;52.81
67545;BME280;54380;47.770;11.150;2023-02-20T21:11:42;95362.84;;;6.49;52.48
67545;BME280;54380;47.770;11.150;2023-02-20T21:14:11;95370.38;;;6.38;52.38
67545;BME280;54380;47.770;11.150;2023-02-20T21:16:39;95371.81;;;6.34;52.86
67545;BME280;54380;47.770;11.150;2023-02-20T21:19:06;95369.66;;;6.25;52.36
67545;BME280;54380;47.770;11.150;2023-02-20T21:21:33;95369.91;;;6.17;52.98
67545;BME280;54380;47.770;11.150;2023-02-20T21:24:01;95365.31;;;6.05;52.70
67545;BME280;54380;47.770;11.150;2023-02-20T21:26:28;95360.13;;;5.99;52.88
67545;BME280;54380;47.770;11.150;2023-02-20T21:28:55;95366.56;;;5.89;53.58
67545;BME280;54380;47.770;11.150;2023-02-20T21:31:23;95358.53;;;5.84;53.86
67545;BME280;54380;47.770;11.150;2023-02-20T21:33:50;95366.00;;;5.81;54.35
67545;BME280;54380;47.770;11.150;2023-02-20T21:36:17;95361.78;;;5.80;53.66
67545;BME280;54380;47.770;11.150;2023-02-20T21:38:44;95359.75;;;5.82;53.74